createdAt,value
2019-01-28T00:00:35.884Z,70.57
2019-01-28T00:01:47.556Z,70.62
2019-01-28T00:02:52.388Z,70.62
2019-01-28T00:03:57.842Z,70.61
2019-01-28T00:05:03.008Z,70.74
2019-01-28T00:06:07.996Z,70.48
2019-01-28T00:07:12.767Z,71.05
2019-01-28T00:08:17.679Z,70.92
2019-01-28T00:09:22.736Z,71.24
2019-01-28T00:10:27.947Z,72.08
2019-01-28T00:11:33.106Z,71.55
2019-01-28T00:12:38.713Z,72.16
2019-01-28T00:13:44.440Z,71.88
2019-01-28T00:14:49.707Z,72.20
2019-01-28T00:15:54.973Z,71.81
2019-01-28T00:17:00.757Z,71.79
2019-01-28T00:18:06.302Z,71.71
2019-01-28T00:19:12.359Z,72.05
2019-01-28T00:20:18.007Z,72.20
2019-01-28T00:21:23.947Z,71.82
2019-01-28T00:22:29.184Z,71.84
2019-01-28T00:23:34.013Z,71.90
2019-01-28T00:24:39.472Z,71.92
2019-01-28T00:25:44.280Z,71.91
2019-01-28T00:26:49.546Z,71.99
2019-01-28T00:27:54.333Z,72.28
2019-01-28T00:29:00.338Z,72.66
2019-01-28T00:30:05.664Z,72.03
2019-01-28T00:31:10.311Z,71.60
2019-01-28T00:32:15.452Z,71.77
2019-01-28T00:33:19.947Z,71.97
2019-01-28T00:34:25.202Z,71.62
2019-01-28T00:35:30.416Z,71.76
2019-01-28T00:36:35.804Z,71.81
2019-01-28T00:37:41.312Z,72.16
2019-01-28T00:38:46.909Z,71.87
2019-01-28T00:39:52.122Z,71.92
2019-01-28T00:40:57.194Z,71.64
2019-01-28T00:42:02.004Z,71.54
2019-01-28T00:43:07.199Z,71.96
2019-01-28T00:44:12.329Z,72.52
2019-01-28T00:45:16.876Z,72.32
2019-01-28T00:46:22.030Z,72.05
2019-01-28T00:47:26.974Z,72.20
2019-01-28T00:48:31.491Z,72.28
2019-01-28T00:49:37.175Z,72.41
2019-01-28T00:50:42.826Z,73.03
2019-01-28T00:51:47.811Z,72.11
2019-01-28T00:52:52.555Z,71.80
2019-01-28T00:53:57.346Z,72.40
2019-01-28T00:55:02.543Z,72.34
2019-01-28T00:56:07.334Z,72.41
2019-01-28T00:57:12.463Z,73.15
2019-01-28T00:58:17.327Z,72.40
2019-01-28T00:59:22.845Z,73.45
2019-01-28T01:00:27.981Z,73.34
2019-01-28T01:01:32.869Z,72.68
2019-01-28T01:02:37.638Z,72.66
2019-01-28T01:03:42.887Z,72.04
2019-01-28T01:04:47.959Z,72.42
2019-01-28T01:05:53.169Z,73.21
2019-01-28T01:06:58.723Z,72.67
2019-01-28T01:08:03.484Z,72.36
2019-01-28T01:09:09.425Z,72.80
2019-01-28T01:10:14.468Z,71.87
2019-01-28T01:11:19.642Z,72.21
2019-01-28T01:12:24.852Z,72.26
2019-01-28T01:13:29.662Z,72.99
2019-01-28T01:14:34.571Z,71.57
2019-01-28T01:15:39.975Z,71.67
2019-01-28T01:16:44.805Z,71.94
2019-01-28T01:17:50.433Z,71.88
2019-01-28T01:18:55.958Z,71.73
2019-01-28T01:20:01.144Z,71.97
2019-01-28T01:21:05.958Z,71.93
2019-01-28T01:22:10.789Z,71.75
2019-01-28T01:23:16.419Z,71.45
2019-01-28T01:24:20.935Z,72.44
2019-01-28T01:25:25.714Z,72.42
2019-01-28T01:26:30.870Z,71.62
2019-01-28T01:27:36.333Z,72.04
2019-01-28T01:28:41.826Z,71.71
2019-01-28T01:29:48.523Z,71.46
2019-01-28T01:30:53.315Z,72.23
2019-01-28T01:31:58.944Z,71.92
2019-01-28T01:33:04.437Z,71.78
2019-01-28T01:34:09.843Z,72.26
2019-01-28T01:35:14.329Z,72.43
2019-01-28T01:36:19.511Z,72.87
2019-01-28T01:37:24.314Z,72.67
2019-01-28T01:38:30.215Z,72.00
2019-01-28T01:39:35.447Z,72.29
2019-01-28T01:40:40.972Z,72.57
2019-01-28T01:41:46.515Z,72.50
2019-01-28T01:42:51.311Z,73.24
2019-01-28T01:43:56.172Z,73.01
2019-01-28T01:45:01.291Z,73.05
2019-01-28T01:46:06.827Z,73.66
2019-01-28T01:47:11.583Z,72.93
2019-01-28T01:48:17.138Z,73.69
2019-01-28T01:49:22.128Z,73.30
2019-01-28T01:50:27.261Z,74.39
2019-01-28T01:51:33.081Z,73.70
2019-01-28T01:52:38.278Z,73.64
2019-01-28T01:53:43.430Z,73.95
2019-01-28T01:54:48.941Z,73.91
2019-01-28T01:55:54.099Z,73.86
2019-01-28T01:56:59.204Z,73.99
2019-01-28T01:58:04.544Z,74.07
2019-01-28T01:59:09.809Z,74.35
2019-01-28T02:00:16.798Z,74.77
2019-01-28T02:01:21.589Z,74.41
2019-01-28T02:02:33.310Z,74.47
2019-01-28T02:03:33.985Z,74.35
2019-01-28T02:04:39.232Z,75.09
2019-01-28T02:05:44.759Z,75.00
2019-01-28T02:06:49.250Z,74.57
2019-01-28T02:07:54.381Z,74.87
2019-01-28T02:08:59.607Z,74.55
2019-01-28T02:10:04.307Z,74.84
2019-01-28T02:11:09.108Z,74.62
2019-01-28T02:12:14.803Z,75.56
2019-01-28T02:13:19.755Z,75.22
2019-01-28T02:14:25.377Z,75.11
2019-01-28T02:15:30.351Z,74.92
2019-01-28T02:16:35.179Z,74.59
2019-01-28T02:17:40.438Z,74.52
2019-01-28T02:18:44.966Z,75.25
2019-01-28T02:19:49.796Z,74.79
2019-01-28T02:20:54.346Z,75.34
2019-01-28T02:21:59.614Z,75.39
2019-01-28T02:23:04.262Z,75.15
2019-01-28T02:24:10.298Z,75.04
2019-01-28T02:25:15.539Z,76.00
2019-01-28T02:26:20.385Z,75.33
2019-01-28T02:27:25.808Z,75.26
2019-01-28T02:28:31.429Z,75.23
2019-01-28T02:29:36.810Z,76.08
2019-01-28T02:30:41.792Z,75.47
2019-01-28T02:31:46.658Z,75.28
2019-01-28T02:32:52.022Z,75.33
2019-01-28T02:33:57.934Z,75.88
2019-01-28T02:35:02.443Z,75.82
2019-01-28T02:36:07.522Z,75.99
2019-01-28T02:37:12.702Z,76.32
2019-01-28T02:38:18.873Z,76.77
2019-01-28T02:39:24.151Z,76.15
2019-01-28T02:40:29.005Z,76.12
2019-01-28T02:41:34.313Z,76.50
2019-01-28T02:42:39.167Z,76.26
2019-01-28T02:43:44.282Z,76.30
2019-01-28T02:44:50.402Z,75.90
2019-01-28T02:45:55.604Z,77.54
2019-01-28T02:47:00.486Z,76.66
2019-01-28T02:48:05.294Z,77.56
2019-01-28T02:49:10.124Z,77.00
2019-01-28T02:50:17.083Z,77.82
2019-01-28T02:51:22.361Z,77.92
2019-01-28T02:52:27.888Z,77.77
2019-01-28T02:53:33.667Z,79.63
2019-01-28T02:54:38.559Z,79.04
2019-01-28T02:55:43.361Z,79.20
2019-01-28T02:56:48.992Z,78.85
2019-01-28T02:57:53.590Z,79.03
2019-01-28T02:58:58.735Z,78.23
2019-01-28T03:00:04.595Z,79.71
2019-01-28T03:01:10.729Z,79.19
2019-01-28T03:02:15.867Z,78.44
2019-01-28T03:03:20.788Z,78.16
2019-01-28T03:04:25.851Z,78.51
2019-01-28T03:05:30.738Z,78.10
2019-01-28T03:06:36.027Z,78.31
2019-01-28T03:07:40.514Z,78.24
2019-01-28T03:08:45.608Z,77.89
2019-01-28T03:09:51.137Z,78.37
2019-01-28T03:10:55.676Z,78.53
2019-01-28T03:12:01.192Z,78.49
2019-01-28T03:13:05.990Z,78.62
2019-01-28T03:14:10.508Z,78.38
2019-01-28T03:15:15.456Z,78.05
2019-01-28T03:16:20.277Z,78.48
2019-01-28T03:17:25.059Z,78.29
2019-01-28T03:18:30.248Z,78.49
2019-01-28T03:19:35.028Z,77.72
2019-01-28T03:20:39.523Z,78.70
2019-01-28T03:21:44.661Z,78.80
2019-01-28T03:22:49.898Z,78.93
2019-01-28T03:23:55.444Z,78.46
2019-01-28T03:25:00.909Z,78.48
2019-01-28T03:26:06.929Z,77.91
2019-01-28T03:27:13.141Z,78.48
2019-01-28T03:28:17.960Z,78.35
2019-01-28T03:29:23.393Z,78.88
2019-01-28T03:30:28.161Z,78.90
2019-01-28T03:31:32.948Z,78.53
2019-01-28T03:32:37.735Z,78.46
2019-01-28T03:33:42.920Z,78.03
2019-01-28T03:34:47.519Z,78.44
2019-01-28T03:35:52.612Z,78.79
2019-01-28T03:36:57.864Z,78.52
2019-01-28T03:38:02.672Z,77.94
2019-01-28T03:39:08.889Z,78.57
2019-01-28T03:40:15.955Z,78.80
2019-01-28T03:41:20.758Z,78.84
2019-01-28T03:42:26.483Z,78.53
2019-01-28T03:43:31.420Z,78.27
2019-01-28T03:44:36.413Z,78.41
2019-01-28T03:45:41.344Z,78.12
2019-01-28T03:46:46.124Z,77.98
2019-01-28T03:47:51.272Z,79.04
2019-01-28T03:48:56.079Z,78.36
2019-01-28T03:50:01.023Z,77.74
2019-01-28T03:51:05.851Z,77.54
2019-01-28T03:52:12.295Z,77.78
2019-01-28T03:53:17.593Z,77.80
2019-01-28T03:54:22.094Z,78.01
2019-01-28T03:55:26.907Z,78.35
2019-01-28T03:56:31.996Z,77.72
2019-01-28T03:57:37.357Z,77.75
2019-01-28T03:58:43.702Z,78.17
2019-01-28T03:59:48.631Z,78.29
2019-01-28T04:00:53.404Z,77.47
2019-01-28T04:01:58.541Z,78.21
2019-01-28T04:03:03.999Z,77.74
2019-01-28T04:04:08.808Z,78.41
2019-01-28T04:05:13.618Z,78.34
2019-01-28T04:06:18.110Z,78.47
2019-01-28T04:07:22.858Z,77.84
2019-01-28T04:08:27.614Z,78.36
2019-01-28T04:09:32.446Z,78.55
2019-01-28T04:10:37.537Z,78.43
2019-01-28T04:11:42.291Z,77.96
2019-01-28T04:12:47.519Z,78.45
2019-01-28T04:13:52.028Z,78.07
2019-01-28T04:14:57.469Z,78.30
2019-01-28T04:16:03.100Z,78.28
2019-01-28T04:17:08.693Z,78.58
2019-01-28T04:18:13.845Z,78.13
2019-01-28T04:19:18.748Z,77.61
2019-01-28T04:20:25.780Z,77.99
2019-01-28T04:21:30.632Z,77.96
2019-01-28T04:22:36.138Z,78.36
2019-01-28T04:23:41.292Z,77.75
2019-01-28T04:24:46.066Z,77.63
2019-01-28T04:25:51.332Z,77.44
2019-01-28T04:26:56.414Z,77.43
2019-01-28T04:28:00.918Z,77.48
2019-01-28T04:29:05.699Z,77.05
2019-01-28T04:30:22.162Z,77.59
2019-01-28T04:31:28.209Z,77.43
2019-01-28T04:32:33.235Z,77.86
2019-01-28T04:33:40.447Z,77.31
2019-01-28T04:34:45.542Z,78.05
2019-01-28T04:35:51.103Z,77.26
2019-01-28T04:36:56.521Z,77.24
2019-01-28T04:38:01.656Z,77.76
2019-01-28T04:39:08.683Z,77.39
2019-01-28T04:40:13.276Z,77.35
2019-01-28T04:41:17.916Z,77.53
2019-01-28T04:42:22.621Z,77.23
2019-01-28T04:43:27.918Z,77.50
2019-01-28T04:44:32.431Z,77.89
2019-01-28T04:45:37.832Z,77.69
2019-01-28T04:46:42.303Z,77.92
2019-01-28T04:47:47.122Z,77.85
2019-01-28T04:48:52.239Z,77.98
2019-01-28T04:49:56.990Z,78.42
2019-01-28T04:51:02.110Z,77.98
2019-01-28T04:52:06.874Z,78.64
2019-01-28T04:53:11.684Z,79.07
2019-01-28T04:54:16.888Z,78.41
2019-01-28T04:55:21.685Z,78.37
2019-01-28T04:56:26.256Z,77.98
2019-01-28T04:57:31.377Z,78.28
2019-01-28T04:58:36.426Z,77.92
2019-01-28T04:59:41.226Z,77.87
2019-01-28T05:00:46.372Z,77.50
2019-01-28T05:01:51.535Z,77.49
2019-01-28T05:02:56.354Z,77.23
2019-01-28T05:04:01.229Z,77.88
2019-01-28T05:05:06.083Z,78.13
2019-01-28T05:06:11.687Z,78.06
2019-01-28T05:07:16.560Z,77.66
2019-01-28T05:08:21.848Z,77.50
2019-01-28T05:09:26.951Z,77.76
2019-01-28T05:10:31.415Z,78.06
2019-01-28T05:11:36.608Z,77.95
2019-01-28T05:12:42.147Z,77.55
2019-01-28T05:13:46.624Z,77.85
2019-01-28T05:14:51.495Z,77.65
2019-01-28T05:15:56.617Z,77.19
2019-01-28T05:17:01.437Z,77.43
2019-01-28T05:18:06.884Z,77.74
2019-01-28T05:19:12.305Z,77.38
2019-01-28T05:20:18.213Z,77.12
2019-01-28T05:21:23.356Z,77.07
2019-01-28T05:22:27.846Z,77.30
2019-01-28T05:23:33.680Z,76.95
2019-01-28T05:24:38.558Z,77.25
2019-01-28T05:25:43.357Z,77.46
2019-01-28T05:26:48.142Z,77.41
2019-01-28T05:27:53.308Z,77.39
2019-01-28T05:28:58.116Z,77.10
2019-01-28T05:30:03.598Z,77.29
2019-01-28T05:31:08.737Z,77.68
2019-01-28T05:32:13.736Z,77.37
2019-01-28T05:33:19.231Z,77.73
2019-01-28T05:34:24.382Z,77.78
2019-01-28T05:35:29.129Z,77.51
2019-01-28T05:36:33.934Z,77.37
2019-01-28T05:37:39.152Z,77.37
2019-01-28T05:38:44.565Z,77.34
2019-01-28T05:39:50.039Z,77.70
2019-01-28T05:40:54.798Z,77.27
2019-01-28T05:41:59.597Z,76.94
2019-01-28T05:43:04.625Z,77.34
2019-01-28T05:44:10.088Z,77.71
2019-01-28T05:45:15.863Z,77.62
2019-01-28T05:46:21.775Z,77.48
2019-01-28T05:47:26.658Z,77.57
2019-01-28T05:48:32.500Z,77.80
2019-01-28T05:49:37.599Z,78.19
2019-01-28T05:50:42.074Z,77.73
2019-01-28T05:51:47.202Z,77.57
2019-01-28T05:52:52.577Z,77.67
2019-01-28T05:53:57.354Z,77.64
2019-01-28T05:55:02.239Z,77.32
2019-01-28T05:56:08.551Z,77.98
2019-01-28T05:57:13.259Z,77.81
2019-01-28T05:58:18.384Z,77.90
2019-01-28T05:59:23.475Z,77.62
2019-01-28T06:00:34.856Z,77.74
2019-01-28T06:01:39.802Z,77.78
2019-01-28T06:02:45.425Z,78.46
2019-01-28T06:03:50.216Z,78.24
2019-01-28T06:04:55.373Z,77.86
2019-01-28T06:06:00.948Z,79.85
2019-01-28T06:07:05.929Z,81.44
2019-01-28T06:08:11.206Z,81.29
2019-01-28T06:09:15.700Z,80.21
2019-01-28T06:10:20.183Z,78.24
2019-01-28T06:11:25.611Z,78.17
2019-01-28T06:12:31.148Z,78.10
2019-01-28T06:13:36.318Z,76.79
2019-01-28T06:14:41.381Z,77.28
2019-01-28T06:15:46.531Z,77.51
2019-01-28T06:16:51.663Z,77.54
2019-01-28T06:17:56.285Z,77.60
2019-01-28T06:19:01.067Z,77.64
2019-01-28T06:20:07.019Z,77.58
2019-01-28T06:21:12.531Z,77.81
2019-01-28T06:22:17.650Z,77.95
2019-01-28T06:23:22.881Z,77.98
2019-01-28T06:24:28.396Z,78.38
2019-01-28T06:25:33.518Z,78.11
2019-01-28T06:26:38.634Z,77.84
2019-01-28T06:27:43.872Z,78.41
2019-01-28T06:28:49.009Z,77.68
2019-01-28T06:29:54.573Z,77.69
2019-01-28T06:30:59.324Z,77.71
2019-01-28T06:32:04.448Z,77.88
2019-01-28T06:33:09.578Z,78.48
2019-01-28T06:34:14.765Z,78.31
2019-01-28T06:35:19.559Z,78.07
2019-01-28T06:36:25.073Z,78.26
2019-01-28T06:37:30.197Z,78.37
2019-01-28T06:38:34.953Z,78.21
2019-01-28T06:39:39.715Z,78.12
2019-01-28T06:40:44.487Z,78.46
2019-01-28T06:41:49.564Z,78.60
2019-01-28T06:42:54.362Z,78.86
2019-01-28T06:44:02.725Z,78.84
2019-01-28T06:45:07.827Z,78.33
2019-01-28T06:46:13.302Z,78.30
2019-01-28T06:47:18.119Z,78.29
2019-01-28T06:48:22.906Z,78.56
2019-01-28T06:49:27.774Z,78.49
2019-01-28T06:50:32.250Z,78.72
2019-01-28T06:51:37.708Z,78.57
2019-01-28T06:52:42.826Z,78.28
2019-01-28T06:53:48.553Z,78.91
2019-01-28T06:54:53.648Z,78.46
2019-01-28T06:55:58.926Z,78.39
2019-01-28T06:57:03.717Z,78.78
2019-01-28T06:58:08.326Z,78.36
2019-01-28T06:59:13.744Z,78.25
2019-01-28T07:00:21.527Z,78.83
2019-01-28T07:01:26.303Z,78.69
2019-01-28T07:02:31.179Z,78.14
2019-01-28T07:03:36.325Z,78.14
2019-01-28T07:04:40.805Z,78.65
2019-01-28T07:05:45.318Z,78.14
2019-01-28T07:06:50.098Z,78.48
2019-01-28T07:07:55.199Z,78.27
2019-01-28T07:08:59.962Z,78.34
2019-01-28T07:10:04.598Z,78.52
2019-01-28T07:11:10.169Z,77.83
2019-01-28T07:12:15.425Z,78.37
2019-01-28T07:13:20.977Z,78.42
2019-01-28T07:14:25.579Z,79.17
2019-01-28T07:15:34.032Z,78.87
2019-01-28T07:17:30.306Z,78.61
2019-01-28T07:18:43.841Z,78.06
2019-01-28T07:19:53.413Z,78.30
2019-01-28T07:20:59.932Z,78.28
2019-01-28T07:22:05.443Z,78.32
2019-01-28T07:23:16.333Z,78.47
2019-01-28T07:24:21.867Z,78.52
2019-01-28T07:25:27.005Z,78.69
2019-01-28T07:26:31.979Z,78.76
2019-01-28T07:27:36.978Z,78.61
2019-01-28T07:28:41.788Z,78.46
2019-01-28T07:29:47.550Z,78.47
2019-01-28T07:30:58.618Z,78.17
2019-01-28T07:32:03.025Z,78.12
2019-01-28T07:33:11.063Z,77.88
2019-01-28T07:34:18.431Z,77.91
2019-01-28T07:35:23.817Z,77.67
2019-01-28T07:36:30.387Z,77.88
2019-01-28T07:37:35.286Z,77.60
2019-01-28T07:38:39.967Z,78.22
2019-01-28T07:39:45.224Z,78.44
2019-01-28T07:40:55.043Z,77.58
2019-01-28T07:42:00.024Z,77.78
2019-01-28T07:43:05.222Z,77.92
2019-01-28T07:44:10.302Z,78.39
2019-01-28T07:45:18.118Z,78.37
2019-01-28T07:46:22.901Z,78.51
2019-01-28T07:47:28.015Z,78.31
2019-01-28T07:48:33.545Z,78.78
2019-01-28T07:49:38.325Z,78.23
2019-01-28T07:50:43.136Z,78.59
2019-01-28T07:51:48.619Z,78.65
2019-01-28T07:52:53.794Z,78.20
2019-01-28T07:53:58.950Z,77.91
2019-01-28T07:55:04.132Z,79.24
2019-01-28T07:56:09.905Z,78.89
2019-01-28T07:57:15.504Z,78.83
2019-01-28T07:58:20.256Z,78.29
2019-01-28T07:59:24.758Z,79.16
2019-01-28T08:00:30.870Z,78.79
2019-01-28T08:01:35.664Z,78.71
2019-01-28T08:02:40.478Z,78.79
2019-01-28T08:03:45.223Z,79.27
2019-01-28T08:04:50.112Z,78.55
2019-01-28T08:05:55.232Z,78.21
2019-01-28T08:06:59.795Z,78.30
2019-01-28T08:08:05.327Z,78.54
2019-01-28T08:09:10.254Z,78.33
2019-01-28T08:10:16.307Z,78.70
2019-01-28T08:11:21.049Z,78.59
2019-01-28T08:12:25.871Z,78.63
2019-01-28T08:13:31.014Z,78.82
2019-01-28T08:14:36.081Z,78.62
2019-01-28T08:15:41.184Z,78.77
2019-01-28T08:16:45.660Z,78.88
2019-01-28T08:17:50.494Z,79.22
2019-01-28T08:18:55.620Z,78.81
2019-01-28T08:20:01.010Z,78.91
2019-01-28T08:21:05.799Z,79.41
2019-01-28T08:22:10.274Z,79.29
2019-01-28T08:23:15.293Z,79.15
2019-01-28T08:24:20.801Z,79.24
2019-01-28T08:25:25.749Z,79.39
2019-01-28T08:26:30.851Z,79.62
2019-01-28T08:27:36.007Z,79.61
2019-01-28T08:28:41.114Z,79.33
2019-01-28T08:29:46.260Z,79.42
2019-01-28T08:30:51.328Z,79.71
2019-01-28T08:31:56.632Z,79.82
2019-01-28T08:33:02.982Z,79.96
2019-01-28T08:34:07.939Z,80.15
2019-01-28T08:35:12.433Z,79.81
2019-01-28T08:36:17.566Z,80.00
2019-01-28T08:37:22.048Z,79.85
2019-01-28T08:38:26.875Z,80.55
2019-01-28T08:39:31.973Z,80.30
2019-01-28T08:40:36.719Z,80.62
2019-01-28T08:41:41.514Z,80.11
2019-01-28T08:42:46.414Z,80.41
2019-01-28T08:43:51.596Z,80.43
2019-01-28T08:44:56.818Z,80.50
2019-01-28T08:46:01.571Z,80.42
2019-01-28T08:47:06.066Z,80.73
2019-01-28T08:48:18.013Z,80.72
2019-01-28T08:49:18.531Z,80.80
2019-01-28T08:50:24.388Z,80.63
2019-01-28T08:51:28.897Z,80.85
2019-01-28T08:52:33.400Z,81.06
2019-01-28T08:53:38.128Z,80.78
2019-01-28T08:54:42.881Z,80.67
2019-01-28T08:55:47.473Z,80.98
2019-01-28T08:56:52.259Z,80.74
2019-01-28T08:57:57.340Z,80.63
2019-01-28T08:59:02.408Z,80.76
2019-01-28T09:00:10.085Z,80.95
2019-01-28T09:01:15.229Z,80.99
2019-01-28T09:02:20.511Z,80.75
2019-01-28T09:03:25.129Z,80.64
2019-01-28T09:04:29.599Z,80.41
2019-01-28T09:05:34.419Z,80.75
2019-01-28T09:06:39.273Z,80.68
2019-01-28T09:07:44.468Z,80.65
2019-01-28T09:08:49.218Z,80.75
2019-01-28T09:09:53.974Z,80.92
2019-01-28T09:10:59.223Z,80.93
2019-01-28T09:12:04.160Z,80.99
2019-01-28T09:13:09.497Z,80.98
2019-01-28T09:14:14.351Z,81.43
2019-01-28T09:15:20.152Z,80.90
2019-01-28T09:16:25.241Z,80.87
2019-01-28T09:17:30.051Z,80.64
2019-01-28T09:18:35.627Z,80.52
2019-01-28T09:19:40.473Z,80.62
2019-01-28T09:20:45.224Z,80.92
2019-01-28T09:21:49.693Z,80.78
2019-01-28T09:22:55.168Z,80.80
2019-01-28T09:24:00.739Z,80.62
2019-01-28T09:25:05.808Z,80.66
2019-01-28T09:26:10.550Z,80.57
2019-01-28T09:27:15.396Z,80.75
2019-01-28T09:28:20.640Z,80.68
2019-01-28T09:29:26.132Z,80.61
2019-01-28T09:30:31.905Z,80.63
2019-01-28T09:31:36.671Z,80.33
2019-01-28T09:32:41.441Z,80.42
2019-01-28T09:33:45.946Z,80.39
2019-01-28T09:34:50.701Z,80.52
2019-01-28T09:35:55.462Z,80.58
2019-01-28T09:37:00.602Z,80.27
2019-01-28T09:38:05.109Z,80.71
2019-01-28T09:39:10.001Z,80.45
2019-01-28T09:40:16.655Z,80.44
2019-01-28T09:41:21.919Z,80.50
2019-01-28T09:42:26.401Z,80.42
2019-01-28T09:43:31.182Z,80.39
2019-01-28T09:44:35.790Z,80.33
2019-01-28T09:45:42.760Z,80.33
2019-01-28T09:46:47.523Z,80.29
2019-01-28T09:47:52.534Z,80.33
2019-01-28T09:48:57.347Z,79.91
2019-01-28T09:50:01.803Z,79.67
2019-01-28T09:51:06.549Z,79.38
2019-01-28T09:52:11.302Z,79.47
2019-01-28T09:53:16.231Z,79.50
2019-01-28T09:54:21.358Z,79.30
2019-01-28T09:55:26.118Z,79.33
2019-01-28T09:56:31.294Z,79.79
2019-01-28T09:57:36.459Z,79.67
2019-01-28T09:58:41.858Z,80.23
2019-01-28T09:59:46.653Z,79.93
2019-01-28T10:00:52.186Z,80.30
2019-01-28T10:01:57.038Z,80.53
2019-01-28T10:03:01.517Z,80.54
2019-01-28T10:04:06.650Z,80.78
2019-01-28T10:05:11.414Z,80.97
2019-01-28T10:06:17.031Z,80.84
2019-01-28T10:07:22.536Z,81.29
2019-01-28T10:08:27.389Z,81.49
2019-01-28T10:09:32.648Z,81.38
2019-01-28T10:10:37.761Z,81.58
2019-01-28T10:11:42.633Z,81.71
2019-01-28T10:12:47.385Z,81.67
2019-01-28T10:13:52.154Z,81.70
2019-01-28T10:14:56.907Z,81.61
2019-01-28T10:16:01.406Z,82.01
2019-01-28T10:17:06.270Z,81.79
2019-01-28T10:18:11.023Z,81.80
2019-01-28T10:19:16.668Z,81.53
2019-01-28T10:20:26.928Z,81.28
2019-01-28T10:21:31.671Z,81.42
2019-01-28T10:22:36.142Z,81.60
2019-01-28T10:23:41.276Z,81.40
2019-01-28T10:24:46.829Z,81.56
2019-01-28T10:25:51.911Z,81.18
2019-01-28T10:26:57.057Z,81.30
2019-01-28T10:28:01.647Z,81.34
2019-01-28T10:29:06.134Z,81.15
2019-01-28T10:30:12.141Z,80.97
2019-01-28T10:31:16.959Z,81.20
2019-01-28T10:32:21.732Z,80.88
2019-01-28T10:33:26.569Z,80.93
2019-01-28T10:34:31.305Z,80.54
2019-01-28T10:35:36.067Z,80.58
2019-01-28T10:36:40.843Z,80.69
2019-01-28T10:37:46.013Z,80.57
2019-01-28T10:38:50.786Z,80.58
2019-01-28T10:39:55.648Z,80.45
2019-01-28T10:41:00.848Z,80.12
2019-01-28T10:42:09.809Z,80.19
2019-01-28T10:43:12.294Z,80.03
2019-01-28T10:44:17.057Z,79.71
2019-01-28T10:45:21.839Z,79.98
2019-01-28T10:46:26.751Z,80.47
2019-01-28T10:47:31.354Z,80.69
2019-01-28T10:48:36.123Z,80.70
2019-01-28T10:49:41.672Z,80.51
2019-01-28T10:50:46.770Z,80.78
2019-01-28T10:51:51.563Z,79.91
2019-01-28T10:52:56.383Z,80.10
2019-01-28T10:54:01.150Z,80.57
2019-01-28T10:55:06.002Z,81.13
2019-01-28T10:56:11.118Z,80.93
2019-01-28T10:57:15.939Z,80.95
2019-01-28T10:58:21.172Z,80.79
2019-01-28T10:59:26.837Z,80.56
2019-01-28T11:00:36.983Z,80.29
2019-01-28T11:01:41.760Z,80.48
2019-01-28T11:02:46.737Z,80.47
2019-01-28T11:03:51.224Z,80.87
2019-01-28T11:04:55.964Z,81.10
2019-01-28T11:06:01.177Z,81.32
2019-01-28T11:07:05.965Z,81.46
2019-01-28T11:08:10.702Z,81.36
2019-01-28T11:09:15.922Z,80.90
2019-01-28T11:10:21.205Z,81.08
2019-01-28T11:11:26.466Z,81.19
2019-01-28T11:12:31.637Z,81.25
2019-01-28T11:13:36.720Z,80.52
2019-01-28T11:14:41.220Z,79.89
2019-01-28T11:15:46.183Z,79.37
2019-01-28T11:16:51.338Z,79.63
2019-01-28T11:17:56.177Z,79.66
2019-01-28T11:19:01.036Z,79.64
2019-01-28T11:20:06.198Z,79.67
2019-01-28T11:21:11.335Z,79.53
2019-01-28T11:22:15.860Z,79.68
2019-01-28T11:23:20.689Z,79.97
2019-01-28T11:24:25.543Z,80.33
2019-01-28T11:25:32.002Z,80.01
2019-01-28T11:26:36.874Z,79.71
2019-01-28T11:27:41.331Z,79.68
2019-01-28T11:28:46.243Z,79.46
2019-01-28T11:29:51.322Z,79.50
2019-01-28T11:31:04.586Z,79.77
2019-01-28T11:32:09.552Z,79.83
2019-01-28T11:33:14.970Z,79.28
2019-01-28T11:34:20.069Z,79.17
2019-01-28T11:35:25.000Z,78.40
2019-01-28T11:36:29.899Z,78.46
2019-01-28T11:37:34.725Z,78.29
2019-01-28T11:38:39.793Z,78.32
2019-01-28T11:39:44.657Z,78.16
2019-01-28T11:40:49.579Z,78.16
2019-01-28T11:41:54.980Z,78.30
2019-01-28T11:43:00.065Z,78.59
2019-01-28T11:44:05.637Z,78.95
2019-01-28T11:45:18.240Z,79.24
2019-01-28T11:46:22.857Z,78.40
2019-01-28T11:47:28.103Z,78.39
2019-01-28T11:48:33.068Z,78.29
2019-01-28T11:49:37.853Z,78.38
2019-01-28T11:50:42.663Z,78.24
2019-01-28T11:51:47.951Z,78.09
2019-01-28T11:52:53.812Z,78.59
2019-01-28T11:53:59.134Z,78.17
2019-01-28T11:55:04.208Z,78.58
2019-01-28T11:56:09.480Z,78.45
2019-01-28T11:57:14.614Z,78.76
2019-01-28T11:58:19.404Z,78.34
2019-01-28T11:59:24.938Z,78.45
2019-01-28T12:00:38.591Z,78.49
2019-01-28T12:01:44.134Z,78.01
2019-01-28T12:02:49.202Z,77.68
2019-01-28T12:03:53.985Z,77.60
2019-01-28T12:04:59.239Z,77.93
2019-01-28T12:06:03.989Z,78.01
2019-01-28T12:07:09.318Z,78.11
2019-01-28T12:08:14.887Z,78.11
2019-01-28T12:09:19.389Z,77.99
2019-01-28T12:10:24.898Z,77.76
2019-01-28T12:11:29.844Z,77.73
2019-01-28T12:12:35.024Z,78.12
2019-01-28T12:13:40.249Z,77.61
2019-01-28T12:14:45.059Z,78.35
2019-01-28T12:15:49.540Z,77.26
2019-01-28T12:16:54.747Z,77.38
2019-01-28T12:18:00.220Z,76.98
2019-01-28T12:19:05.012Z,77.26
2019-01-28T12:20:10.443Z,77.02
2019-01-28T12:21:15.266Z,76.61
2019-01-28T12:22:20.330Z,76.70
2019-01-28T12:23:24.836Z,76.37
2019-01-28T12:24:30.376Z,76.53
2019-01-28T12:25:35.897Z,76.52
2019-01-28T12:26:41.062Z,77.12
2019-01-28T12:27:45.544Z,76.51
2019-01-28T12:28:50.322Z,76.28
2019-01-28T12:29:54.791Z,77.09
2019-01-28T12:31:00.049Z,76.55
2019-01-28T12:32:04.811Z,76.48
2019-01-28T12:33:09.605Z,75.98
2019-01-28T12:34:16.703Z,76.35
2019-01-28T12:35:22.175Z,76.51
2019-01-28T12:36:26.916Z,76.49
2019-01-28T12:37:32.064Z,76.52
2019-01-28T12:38:36.929Z,76.53
2019-01-28T12:39:42.164Z,76.24
2019-01-28T12:40:46.976Z,76.68
2019-01-28T12:41:51.737Z,76.91
2019-01-28T12:42:56.222Z,77.18
2019-01-28T12:44:01.428Z,77.56
2019-01-28T12:45:07.390Z,77.21
2019-01-28T12:46:12.518Z,76.72
2019-01-28T12:47:17.778Z,77.62
2019-01-28T12:48:23.256Z,76.92
2019-01-28T12:49:28.069Z,77.19
2019-01-28T12:50:32.896Z,77.59
2019-01-28T12:51:38.183Z,77.77
2019-01-28T12:52:44.255Z,77.89
2019-01-28T12:53:49.143Z,77.82
2019-01-28T12:54:53.917Z,76.69
2019-01-28T12:55:59.128Z,76.79
2019-01-28T12:57:04.212Z,77.11
2019-01-28T12:58:08.988Z,77.62
2019-01-28T12:59:14.188Z,77.30
2019-01-28T13:00:21.951Z,76.81
2019-01-28T13:01:27.036Z,76.86
2019-01-28T13:02:31.827Z,76.66
2019-01-28T13:03:36.825Z,76.40
2019-01-28T13:04:42.280Z,76.78
2019-01-28T13:05:47.675Z,76.42
2019-01-28T13:06:52.145Z,76.21
2019-01-28T13:07:57.676Z,76.14
2019-01-28T13:09:02.454Z,76.78
2019-01-28T13:10:08.760Z,76.61
2019-01-28T13:11:13.990Z,76.35
2019-01-28T13:12:18.895Z,76.47
2019-01-28T13:13:23.652Z,77.26
2019-01-28T13:14:28.871Z,76.88
2019-01-28T13:15:33.388Z,77.00
2019-01-28T13:16:38.162Z,76.63
2019-01-28T13:17:43.303Z,75.91
2019-01-28T13:18:47.776Z,75.28
2019-01-28T13:19:53.779Z,76.38
2019-01-28T13:20:58.735Z,76.49
2019-01-28T13:22:03.237Z,75.92
2019-01-28T13:23:08.044Z,75.19
2019-01-28T13:24:12.804Z,76.06
2019-01-28T13:25:18.431Z,76.01
2019-01-28T13:26:23.169Z,76.30
2019-01-28T13:27:27.962Z,76.30
2019-01-28T13:28:33.134Z,76.00
2019-01-28T13:29:38.663Z,75.83
2019-01-28T13:30:43.434Z,75.26
2019-01-28T13:31:48.205Z,75.63
2019-01-28T13:32:52.962Z,75.14
2019-01-28T13:33:58.386Z,75.65
2019-01-28T13:35:03.017Z,75.24
2019-01-28T13:36:09.619Z,74.95
2019-01-28T13:37:18.119Z,74.52
2019-01-28T13:38:23.835Z,74.55
2019-01-28T13:39:28.604Z,74.74
2019-01-28T13:40:33.719Z,74.90
2019-01-28T13:41:39.941Z,74.97
2019-01-28T13:42:44.745Z,75.34
2019-01-28T13:43:50.237Z,76.06
2019-01-28T13:44:54.994Z,75.95
2019-01-28T13:45:59.752Z,75.76
2019-01-28T13:47:04.272Z,75.74
2019-01-28T13:48:11.561Z,75.86
2019-01-28T13:49:16.154Z,76.18
2019-01-28T13:50:22.150Z,76.60
2019-01-28T13:51:26.920Z,76.74
2019-01-28T13:52:32.019Z,77.22
2019-01-28T13:53:36.943Z,77.03
2019-01-28T13:54:41.430Z,77.23
2019-01-28T13:55:46.604Z,77.03
2019-01-28T13:56:51.836Z,77.35
2019-01-28T13:57:56.312Z,76.76
2019-01-28T13:59:01.523Z,76.83
2019-01-28T14:00:07.922Z,76.82
2019-01-28T14:01:12.690Z,77.47